Sweet Springs, Missouri
Current Conditions -  °F | °C
As of 2:58 PM on Tuesday 21 Oct 2014 (Local Time) from KSZL Reporting Station
Clear Clear  
Wind Chill: 71°   Ceiling: Unl
Heat Index: 71°   Visibility: 9mi
Dew Point: 43°   Wind: 2mph
Humidity: 36%   Direction: NA
Pressure: 30.09"   Gusts: NA
Location:  38.96°N, 93.41°W
Report Text: KSZL 211958Z AUTO VRB02KT 9SM CLR 22/06 A3009 RMK AO2 SLP191 T02180061 $
Loading
Personal Weather Stations






























Interactive Weather Map
Tropical Storm Tracking
New forecast layout! Learn more

10-Day Weather Forecast

Advertisements
Track Severe Weather on mobile